Time;durP1;ratioP1;P1;durP2;ratioP2;P2;SDS_P1;SDS_P2;PMS_P1;PMS_P2;Temp;Humidity;BMP_temperature;BMP_pressure;BME280_temperature;BME280_humidity;BME280_pressure;Samples;Min_cycle;Max_cycle;Signal;HPM_P1;HPM_P2
2024/01/18 00:09:50;;;;;;;14.87;9.33;;;;;;;;;;20928855;28;20873;-74
2024/01/18 00:19:53;;;;;;;13.30;8.30;;;;;;;;;;20922823;28;20270;-74
2024/01/18 00:29:55;;;;;;;17.67;9.60;;;;;;;;;;20922381;28;20247;-74
2024/01/18 00:39:57;;;;;;;15.80;9.57;;;;;;;;;;20921271;28;20215;-74
2024/01/18 00:49:59;;;;;;;14.43;9.00;;;;;;;;;;20920135;28;20326;-74
2024/01/18 01:00:02;;;;;;;17.33;9.60;;;;;;;;;;20919894;28;20204;-74
2024/01/18 01:10:05;;;;;;;15.10;9.23;;;;;;;;;;20918787;28;20258;-73
2024/01/18 01:20:11;;;;;;;11.97;8.37;;;;;;;;;;20917040;28;20208;-73
2024/01/18 01:30:13;;;;;;;15.40;8.67;;;;;;;;;;20917426;28;20289;-73
2024/01/18 01:40:16;;;;;;;11.67;8.17;;;3.60;99.90;;;;;;20916508;28;20207;-73
2024/01/18 01:50:18;;;;;;;13.47;8.63;;;;;;;;;;20915528;28;20264;-74
2024/01/18 02:00:21;;;;;;;11.33;7.77;;;;;;;;;;20915560;28;20694;-73
2024/01/18 02:10:24;;;;;;;11.43;7.60;;;;;;;;;;20914769;28;20242;-74
2024/01/18 02:20:26;;;;;;;10.63;7.53;;;;;;;;;;20911757;28;20208;-75
2024/01/18 02:30:28;;;;;;;11.67;7.63;;;;;;;;;;20910159;28;20319;-75
2024/01/18 02:40:30;;;;;;;12.27;7.77;;;;;;;;;;20911505;28;20214;-74
2024/01/18 02:50:32;;;;;;;14.30;7.97;;;;;;;;;;20911077;28;20232;-73
2024/01/18 03:00:34;;;;;;;11.80;7.87;;;;;;;;;;20842623;28;20215;-73
2024/01/18 03:10:36;;;;;;;12.67;8.37;;;;;;;;;;20829209;28;20232;-74
2024/01/18 03:20:38;;;;;;;10.17;7.13;;;;;;;;;;20866482;28;20663;-73
2024/01/18 03:30:41;;;;;;;10.57;7.10;;;;;;;;;;20911072;28;20232;-72
2024/01/18 03:40:43;;;;;;;10.73;7.40;;;;;;;;;;20887807;28;20319;-75
2024/01/18 03:50:45;;;;;;;11.67;7.80;;;;;;;;;;20842683;28;20803;-73
2024/01/18 04:00:47;;;;;;;13.20;8.83;;;;;;;;;;20842526;28;20248;-74
2024/01/18 04:10:49;;;;;;;13.20;8.77;;;;;;;;;;20841577;28;20224;-74
2024/01/18 04:25:23;;;;;;;14.90;10.27;;;;;;;;;;20984330;28;20552;-73
2024/01/18 04:35:25;;;;;;;16.33;10.73;;;;;;;;;;20983449;28;20206;-73
2024/01/18 04:45:27;;;;;;;16.87;11.50;;;;;;;;;;20983133;28;20210;-73
2024/01/18 04:55:29;;;;;;;18.47;12.43;;;;;;;;;;20981778;28;20215;-73
2024/01/18 05:05:31;;;;;;;16.70;12.00;;;;;;;;;;20981090;28;20678;-73
2024/01/18 05:15:34;;;;;;;21.83;13.07;;;;;;;;;;20980190;28;20733;-73
2024/01/18 05:25:36;;;;;;;20.47;12.83;;;;;;;;;;20977834;28;20710;-72
2024/01/18 05:35:38;;;;;;;19.83;12.97;;;;;;;;;;20931010;28;20261;-71
2024/01/18 05:45:40;;;;;;;19.83;12.47;;;;;;;;;;20920095;28;20578;-72
2024/01/18 05:55:42;;;;;;;20.33;13.37;;;;;;;;;;20922610;28;20215;-73
2024/01/18 06:05:45;;;;;;;22.73;14.73;;;;;;;;;;20922653;28;20607;-74
2024/01/18 06:15:47;;;;;;;28.07;14.77;;;;;;;;;;20920494;28;20269;-74
2024/01/18 06:25:49;;;;;;;24.00;14.77;;;;;;;;;;20840577;28;20204;-77
2024/01/18 06:35:51;;;;;;;25.53;15.97;;;;;;;;;;20809296;28;20233;-73
2024/01/18 06:45:54;;;;;;;26.60;15.30;;;;;;;;;;20752865;28;20259;-73
2024/01/18 06:55:57;;;;;;;24.60;14.57;;;;;;;;;;20753350;28;20609;-73
2024/01/18 07:05:59;;;;;;;26.37;15.53;;;;;;;;;;20752286;28;20221;-74
2024/01/18 07:16:01;;;;;;;24.17;14.90;;;;;;;;;;20751471;28;20328;-73
2024/01/18 07:26:04;;;;;;;25.83;15.40;;;;;;;;;;20751369;28;20217;-73
2024/01/18 07:36:06;;;;;;;23.23;14.13;;;;;;;;;;20750128;28;20237;-73
2024/01/18 07:46:08;;;;;;;31.70;15.13;;;;;;;;;;20749487;28;20259;-73
2024/01/18 07:56:11;;;;;;;20.87;11.67;;;;;;;;;;20748964;28;20251;-74
2024/01/18 08:14:41;;;;;;;9.87;6.67;;;0.80;99.90;;;;;;20984374;28;21050;-74
2024/01/18 08:24:43;;;;;;;15.07;7.90;;;;;;;;;;20982842;28;20309;-72
2024/01/18 08:34:45;;;;;;;6.73;4.23;;;;;;;;;;20927647;28;20209;-71
2024/01/18 08:44:48;;;;;;;5.40;3.90;;;;;;;;;;20897976;28;20212;-72
2024/01/18 08:54:51;;;;;;;8.00;5.37;;;;;;;;;;20898205;28;20219;-72
2024/01/18 09:07:37;;;;;;;8.17;3.87;;;;;;;;;;20984714;28;20558;-72
2024/01/18 09:17:41;;;;;;;6.10;4.33;;;3.00;99.90;;;;;;20983763;28;20217;-72
2024/01/18 09:27:43;;;;;;;5.50;3.97;;;;;;;;;;20982717;28;20677;-72
2024/01/18 09:37:45;;;;;;;4.67;3.60;;;;;;;;;;20980604;28;20219;-72
